Ardmore Seahawk — V7JZ8 — position and weather

sailwx.info

Track history (hours):
 
Tides and Currents Weather Stations Pressure Air Temp Water Temp Dewpoint Dewpoint Depression Visibility Wind Speed Wind Dir Waves Ship Positions

Ardmore Seahawk

Last reported at 2017-Nov-16 23:41 UTC. Time now 2017-Nov-18 06:53 UTC.
Position N 51°35' E 002°24'.

Length 183 m; draft 8 m.

Type: Ship (hazmat cat B). MMSI: 538006132.

Date/timePositionNaut miles runAvg speedWind from/ knotsBaromVisibWave heightAir tempDewpointWater temp
2017-Nov-16 23:41N 51°35' E 002°24'313.3
2017-Nov-16 23:29N 51°33' E 002°21'613.1
2017-Nov-16 23:01N 51°28' E 002°15'612.7
2017-Nov-16 22:30N 51°23' E 002°10'612.6
2017-Nov-16 22:00N 51°17' E 002°07'612.3
2017-Nov-16 21:30N 51°12' E 002°01'612.5
2017-Nov-16 21:00N 51°09' E 001°52'612.0
2017-Nov-16 20:30N 51°06' E 001°43'510.8
2017-Nov-16 20:00N 51°03' E 001°37'510.9
2017-Nov-16 19:30N 50°58' E 001°33'510.7
2017-Nov-16 19:00N 50°54' E 001°28'610.8
2017-Nov-16 18:30N 50°48' E 001°26'611.2
2017-Nov-16 17:58N 50°43' E 001°23'2111.7
2017-Nov-16 16:09N 50°29' E 000°57'211.8
2017-Nov-16 16:00N 50°28' E 000°55'612.0
2017-Nov-16 15:30N 50°27' E 000°46'711.9
2017-Nov-16 14:57N 50°25' E 000°36'811.7
2017-Nov-16 14:14N 50°23' E 000°23'311.6
2017-Nov-16 14:00N 50°22' E 000°19'611.5
2017-Nov-16 13:30N 50°20' E 000°10'611.5
2017-Nov-16 13:00N 50°18' E 000°02'611.5
2017-Nov-16 12:30N 50°17' W 000°07'611.5
2017-Nov-16 12:00N 50°16' W 000°16'2711.8
2017-Nov-16 09:45N 50°09' W 000°56'513.3
2017-Nov-16 09:23N 50°07' W 001°03'513.9
2017-Nov-16 09:00N 50°06' W 001°11'714.5
2017-Nov-16 08:31N 50°05' W 001°22'815.2
2017-Nov-16 08:00N 50°03' W 001°34'815.7
2017-Nov-16 07:30N 50°01' W 001°45'816.1
2017-Nov-16 07:00N 49°58' W 001°57'815.9
2017-Nov-16 06:30N 49°57' W 002°10'815.9
2017-Nov-16 06:00N 49°55' W 002°22'815.5
2017-Nov-16 05:27N 49°53' W 002°34'715.0
2017-Nov-16 05:00N 49°51' W 002°44'714.6
2017-Nov-16 04:30N 49°48' W 002°54'814.3
2017-Nov-16 03:57N 49°44' W 003°05'714.1
2017-Nov-16 03:27N 49°40' W 003°14'714.1
2017-Nov-16 02:56N 49°37' W 003°24'614.0
2017-Nov-16 02:29N 49°33' W 003°32'713.8
2017-Nov-16 02:00N 49°30' W 003°41'813.6
2017-Nov-16 01:27N 49°26' W 003°52'613.6
2017-Nov-16 00:58N 49°23' W 004°00'713.2
2017-Nov-16 00:28N 49°20' W 004°09'1013.0
2017-Nov-15 23:44N 49°15' W 004°22'312.6
2017-Nov-15 23:29N 49°14' W 004°26'712.6
2017-Nov-15 22:55N 49°10' W 004°36'512.2
2017-Nov-15 22:30N 49°08' W 004°43'612.0
2017-Nov-15 22:00N 49°05' W 004°51'611.7
2017-Nov-15 21:30N 49°02' W 004°58'611.5
2017-Nov-15 21:00N 48°59' W 005°06'611.4
2017-Nov-15 20:27N 48°56' W 005°14'511.3
2017-Nov-15 20:00N 48°53' W 005°21'611.3
2017-Nov-15 19:30N 48°50' W 005°28'611.5
2017-Nov-15 18:58N 48°47' W 005°36'611.4
2017-Nov-15 18:29N 48°43' W 005°40'611.6
2017-Nov-15 18:00N 48°37' W 005°44'611.6
2017-Nov-15 17:29N 48°32' W 005°48'511.1
2017-Nov-15 17:00N 48°27' W 005°49'611.8
2017-Nov-15 16:29N 48°21' W 005°46'612.2
2017-Nov-15 16:00N 48°15' W 005°44'612.3
2017-Nov-15 15:30N 48°10' W 005°41'712.2
2017-Nov-15 14:58N 48°03' W 005°38'612.6
2017-Nov-15 14:30N 47°58' W 005°35'712.5
2017-Nov-15 13:58N 47°51' W 005°32'712.6
2017-Nov-15 13:23N 47°44' W 005°28'512.9
2017-Nov-15 13:00N 47°40' W 005°26'613.0
2017-Nov-15 12:30N 47°34' W 005°22'713.1
2017-Nov-15 12:00N 47°28' W 005°19'613.2
2017-Nov-15 11:30N 47°21' W 005°15'713.3
2017-Nov-15 11:00N 47°15' W 005°12'713.1
2017-Nov-15 10:30N 47°09' W 005°09'713.1
2017-Nov-15 09:57N 47°02' W 005°06'613.3
2017-Nov-15 09:30N 46°56' W 005°04'713.3
2017-Nov-15 08:58N 46°49' W 005°01'713.1
2017-Nov-15 08:28N 46°44' W 004°57'613.1
2017-Nov-15 07:59N 46°38' W 004°54'17112.9
2017-Nov-14 18:45N 43°57' W 003°29'412.6
2017-Nov-14 18:29N 43°54' W 003°27'612.1
2017-Nov-14 18:00N 43°49' W 003°26'5 9.3
2017-Nov-14 17:31N 43°44' W 003°24'2 3.1
2017-Nov-14 17:01N 43°43' W 003°23'0 0.9
2017-Nov-14 16:30N 43°43' W 003°22'0 0.9
2017-Nov-14 16:00N 43°43' W 003°22'0 0.8
2017-Nov-14 15:30N 43°43' W 003°21'0 0.8
2017-Nov-14 15:00N 43°43' W 003°21'0 0.8
2017-Nov-14 14:30N 43°43' W 003°20'0 0.9
2017-Nov-14 14:00N 43°43' W 003°19'0 0.8
2017-Nov-14 13:31N 43°43' W 003°19'0 0.8
2017-Nov-14 13:01N 43°43' W 003°18'0 0.9
2017-Nov-14 12:31N 43°43' W 003°18'0 0.9
2017-Nov-14 12:01N 43°43' W 003°17'0 0.8
2017-Nov-14 11:30N 43°43' W 003°17'0 0.7
2017-Nov-14 11:00N 43°43' W 003°16'0 0.7
2017-Nov-14 10:31N 43°43' W 003°16'0 0.6
2017-Nov-14 10:00N 43°43' W 003°15'0 0.4
2017-Nov-14 09:30N 43°43' W 003°15'1 2.5
2017-Nov-14 09:01N 43°42' W 003°15'4 7.3
2017-Nov-14 08:30N 43°38' W 003°13'510.8
2017-Nov-14 08:01N 43°33' W 003°11'611.9
2017-Nov-14 07:31N 43°28' W 003°08'510.4
2017-Nov-14 07:00N 43°23' W 003°05'1 2.5
2017-Nov-14 06:30N 43°22' W 003°06'0 0.0
2017-Nov-14 05:59N 43°22' W 003°06'0 0.0
2017-Nov-14 05:29N 43°22' W 003°06'0 0.0
2017-Nov-14 04:59N 43°22' W 003°06'0 0.0
2017-Nov-14 04:29N 43°22' W 003°06'0 0.0
2017-Nov-14 03:59N 43°22' W 003°06'0 0.0
2017-Nov-14 03:29N 43°22' W 003°06'0 0.0
2017-Nov-14 02:59N 43°22' W 003°06'0 0.0
2017-Nov-14 02:29N 43°22' W 003°06'0 0.0
2017-Nov-14 01:59N 43°22' W 003°06'0 0.0
2017-Nov-14 01:29N 43°22' W 003°06'0 0.0
2017-Nov-14 00:59N 43°22' W 003°06'0 0.0
2017-Nov-14 00:29N 43°22' W 003°06'0 0.0
2017-Nov-13 23:59N 43°22' W 003°06'0 0.0
2017-Nov-13 23:29N 43°22' W 003°06'0 0.0
2017-Nov-13 22:59N 43°22' W 003°06'0 0.0
2017-Nov-13 22:29N 43°22' W 003°06'0 0.0
2017-Nov-13 21:59N 43°22' W 003°06'0 0.0
2017-Nov-13 02:00N 43°22' W 003°06'0 0.0
2017-Nov-13 01:30N 43°22' W 003°06'0 0.0
2017-Nov-13 01:00N 43°22' W 003°06'0 0.0
2017-Nov-13 00:30N 43°22' W 003°06'0 0.0
2017-Nov-13 00:00N 43°22' W 003°06'0 0.0
2017-Nov-12 23:30N 43°22' W 003°06'0 0.0
2017-Nov-12 23:00N 43°22' W 003°06'0 0.0
2017-Nov-12 22:27N 43°22' W 003°06'0 0.0
2017-Nov-12 22:00N 43°22' W 003°06'0 0.0
2017-Nov-12 21:30N 43°22' W 003°06'0 0.0
2017-Nov-12 21:00N 43°22' W 003°06'0 0.0
2017-Nov-12 20:30N 43°22' W 003°06'0 0.0
2017-Nov-12 20:00N 43°22' W 003°06'0 0.0
2017-Nov-12 19:30N 43°22' W 003°06'0 0.0
2017-Nov-12 19:00N 43°22' W 003°06'0 0.0
2017-Nov-12 18:30N 43°22' W 003°06'0 0.0
2017-Nov-12 18:00N 43°22' W 003°06'0 0.0
2017-Nov-12 17:30N 43°22' W 003°06'0 0.0
2017-Nov-12 17:00N 43°22' W 003°06'0 0.0
2017-Nov-12 16:27N 43°22' W 003°06'0 0.0
2017-Nov-12 16:00N 43°22' W 003°06'0 0.0
2017-Nov-12 15:30N 43°22' W 003°06'0 0.0
2017-Nov-12 15:00N 43°22' W 003°06'0 0.0
2017-Nov-12 14:30N 43°22' W 003°06'0 0.0
2017-Nov-12 14:00N 43°22' W 003°06'0 0.0
2017-Nov-12 13:30N 43°22' W 003°06'0 0.0
2017-Nov-12 13:00N 43°22' W 003°06'0 0.0
2017-Nov-12 12:27N 43°22' W 003°06'0 0.0
2017-Nov-12 12:00N 43°22' W 003°06'0 0.0
2017-Nov-12 11:30N 43°22' W 003°06'0 0.0
2017-Nov-12 11:00N 43°22' W 003°06'0 0.0
2017-Nov-12 10:30N 43°22' W 003°06'0 0.0
2017-Nov-12 10:00N 43°22' W 003°06'0 0.0
2017-Nov-12 09:27N 43°22' W 003°06'0 0.0
2017-Nov-12 09:00N 43°22' W 003°06'0 0.0
2017-Nov-12 08:30N 43°22' W 003°06'0 0.0
2017-Nov-12 08:00N 43°22' W 003°06'0 0.0
2017-Nov-12 07:30N 43°22' W 003°06'0 0.0
2017-Nov-12 06:57N 43°22' W 003°06'0 0.0
2017-Nov-12 06:30N 43°22' W 003°06'0 0.0
2017-Nov-12 06:00N 43°22' W 003°06'0 0.0
2017-Nov-12 05:27N 43°22' W 003°06'0 0.0
2017-Nov-12 05:00N 43°22' W 003°06'0 0.0
2017-Nov-12 04:30N 43°22' W 003°06'0 0.0
2017-Nov-12 03:57N 43°22' W 003°06'0 0.0
2017-Nov-12 03:30N 43°22' W 003°06'0 0.0
2017-Nov-12 03:00N 43°22' W 003°06'0 0.0
2017-Nov-12 02:30N 43°22' W 003°06'0 0.0
2017-Nov-12 02:00N 43°22' W 003°06'0 0.0
2017-Nov-12 01:30N 43°22' W 003°06'0 0.0
2017-Nov-12 01:00N 43°22' W 003°06'0 0.0
2017-Nov-12 00:30N 43°22' W 003°06'0 0.0
2017-Nov-11 23:24N 43°22' W 003°06'0 0.0
2017-Nov-11 23:00N 43°22' W 003°06'0 0.0
2017-Nov-11 22:30N 43°22' W 003°06'0 0.0
2017-Nov-11 22:00N 43°22' W 003°06'0 0.0
2017-Nov-11 21:30N 43°22' W 003°06'1 2.2
2017-Nov-11 21:00N 43°23' W 003°05'3 6.8
2017-Nov-11 20:30N 43°26' W 003°08'4 8.6
2017-Nov-11 20:00N 43°29' W 003°11'3 6.9
2017-Nov-11 19:30N 43°31' W 003°14'612.3
2017-Nov-11 19:00N 43°36' W 003°20'713.5
2017-Nov-11 18:30N 43°40' W 003°28'713.9
2017-Nov-11 18:00N 43°42' W 003°37'713.7
2017-Nov-11 17:30N 43°44' W 003°46'713.8
2017-Nov-11 17:00N 43°45' W 003°55'713.9
2017-Nov-11 16:30N 43°47' W 004°05'713.9
2017-Nov-11 16:01N 43°49' W 004°14'4113.6
2017-Nov-11 13:01N 43°54' W 005°10'413.9
2017-Nov-11 12:44N 43°54' W 005°15'1613.8
2017-Nov-11 11:36N 43°55' W 005°37'7513.7
2017-Nov-11 06:10N 44°00' W 007°21'213.8
2017-Nov-11 06:00N 44°00' W 007°24'713.7
2017-Nov-11 05:30N 43°60' W 007°33'713.6
2017-Nov-11 05:00N 43°60' W 007°43'713.2
2017-Nov-11 04:30N 43°59' W 007°52'1412.8
2017-Nov-11 03:23N 43°59' W 008°12'  
2017-Nov-07 14:46N 29°31' W 014°25'412.0
2017-Nov-07 14:27N 29°27' W 014°27'3212.0
2017-Nov-07 11:48N 28°57' W 014°39'1011.8
2017-Nov-07 10:57N 28°49' W 014°45'612.2
2017-Nov-07 10:28N 28°44' W 014°49'612.1
2017-Nov-07 10:00N 28°40' W 014°53'612.0
2017-Nov-07 09:30N 28°35' W 014°57'612.2
2017-Nov-07 09:00N 28°31' W 015°02'612.2
2017-Nov-07 08:30N 28°26' W 015°06'612.0
2017-Nov-07 08:00N 28°22' W 015°11'511.2
2017-Nov-07 07:30N 28°18' W 015°15'3 3.7
2017-Nov-07 06:38N 28°15' W 015°18'1 1.7
2017-Nov-07 06:16N 28°15' W 015°18'1 2.5
2017-Nov-07 06:00N 28°14' W 015°18'1 2.7
2017-Nov-07 05:30N 28°12' W 015°18'2 3.0
2017-Nov-07 05:00N 28°11' W 015°18'1 2.1
2017-Nov-07 04:30N 28°10' W 015°17'0 0.7
2017-Nov-07 04:00N 28°10' W 015°18'2 4.2
2017-Nov-07 03:30N 28°09' W 015°20'2 4.5
2017-Nov-07 03:00N 28°08' W 015°22'1 2.1
2017-Nov-07 02:30N 28°07' W 015°22'1 3.0
2017-Nov-07 02:00N 28°06' W 015°20'3 5.5
2017-Nov-07 01:30N 28°04' W 015°18'5 9.7
2017-Nov-07 01:00N 27°60' W 015°15'612.3
2017-Nov-07 00:30N 27°53' W 015°15'612.6
2017-Nov-07 00:00N 27°47' W 015°16'  
Track history (hours):
 
Tides and Currents Weather Stations Pressure Air Temp Water Temp Dewpoint Dewpoint Depression Visibility Wind Speed Wind Dir Waves Ship Positions

Ardmore Seahawk

Last reported at 2017-Nov-16 23:41 UTC. Time now 2017-Nov-18 06:53 UTC.
Position N 51°35' E 002°24'.

Length 183 m; draft 8 m.

Type: Ship (hazmat cat B). MMSI: 538006132.

Date/timePositionNaut miles runAvg speedWind from/ knotsBaromVisibWave heightAir tempDewpointWater temp
2017-Nov-16 23:41N 51°35' E 002°24'313.3
2017-Nov-16 23:29N 51°33' E 002°21'613.1
2017-Nov-16 23:01N 51°28' E 002°15'612.7
2017-Nov-16 22:30N 51°23' E 002°10'612.6
2017-Nov-16 22:00N 51°17' E 002°07'612.3
2017-Nov-16 21:30N 51°12' E 002°01'612.5
2017-Nov-16 21:00N 51°09' E 001°52'612.0
2017-Nov-16 20:30N 51°06' E 001°43'510.8
2017-Nov-16 20:00N 51°03' E 001°37'510.9
2017-Nov-16 19:30N 50°58' E 001°33'510.7
2017-Nov-16 19:00N 50°54' E 001°28'610.8
2017-Nov-16 18:30N 50°48' E 001°26'611.2
2017-Nov-16 17:58N 50°43' E 001°23'2111.7
2017-Nov-16 16:09N 50°29' E 000°57'211.8
2017-Nov-16 16:00N 50°28' E 000°55'612.0
2017-Nov-16 15:30N 50°27' E 000°46'711.9
2017-Nov-16 14:57N 50°25' E 000°36'811.7
2017-Nov-16 14:14N 50°23' E 000°23'311.6
2017-Nov-16 14:00N 50°22' E 000°19'611.5
2017-Nov-16 13:30N 50°20' E 000°10'611.5
2017-Nov-16 13:00N 50°18' E 000°02'611.5
2017-Nov-16 12:30N 50°17' W 000°07'611.5
2017-Nov-16 12:00N 50°16' W 000°16'2711.8
2017-Nov-16 09:45N 50°09' W 000°56'513.3
2017-Nov-16 09:23N 50°07' W 001°03'513.9
2017-Nov-16 09:00N 50°06' W 001°11'714.5
2017-Nov-16 08:31N 50°05' W 001°22'815.2
2017-Nov-16 08:00N 50°03' W 001°34'815.7
2017-Nov-16 07:30N 50°01' W 001°45'816.1
2017-Nov-16 07:00N 49°58' W 001°57'815.9
2017-Nov-16 06:30N 49°57' W 002°10'815.9
2017-Nov-16 06:00N 49°55' W 002°22'815.5
2017-Nov-16 05:27N 49°53' W 002°34'715.0
2017-Nov-16 05:00N 49°51' W 002°44'714.6
2017-Nov-16 04:30N 49°48' W 002°54'814.3
2017-Nov-16 03:57N 49°44' W 003°05'714.1
2017-Nov-16 03:27N 49°40' W 003°14'714.1
2017-Nov-16 02:56N 49°37' W 003°24'614.0
2017-Nov-16 02:29N 49°33' W 003°32'713.8
2017-Nov-16 02:00N 49°30' W 003°41'813.6
2017-Nov-16 01:27N 49°26' W 003°52'613.6
2017-Nov-16 00:58N 49°23' W 004°00'713.2
2017-Nov-16 00:28N 49°20' W 004°09'1013.0
2017-Nov-15 23:44N 49°15' W 004°22'312.6
2017-Nov-15 23:29N 49°14' W 004°26'712.6
2017-Nov-15 22:55N 49°10' W 004°36'512.2
2017-Nov-15 22:30N 49°08' W 004°43'612.0
2017-Nov-15 22:00N 49°05' W 004°51'611.7
2017-Nov-15 21:30N 49°02' W 004°58'611.5
2017-Nov-15 21:00N 48°59' W 005°06'611.4
2017-Nov-15 20:27N 48°56' W 005°14'511.3
2017-Nov-15 20:00N 48°53' W 005°21'611.3
2017-Nov-15 19:30N 48°50' W 005°28'611.5
2017-Nov-15 18:58N 48°47' W 005°36'611.4
2017-Nov-15 18:29N 48°43' W 005°40'611.6
2017-Nov-15 18:00N 48°37' W 005°44'611.6
2017-Nov-15 17:29N 48°32' W 005°48'511.1
2017-Nov-15 17:00N 48°27' W 005°49'611.8
2017-Nov-15 16:29N 48°21' W 005°46'612.2
2017-Nov-15 16:00N 48°15' W 005°44'612.3
2017-Nov-15 15:30N 48°10' W 005°41'712.2
2017-Nov-15 14:58N 48°03' W 005°38'612.6
2017-Nov-15 14:30N 47°58' W 005°35'712.5
2017-Nov-15 13:58N 47°51' W 005°32'712.6
2017-Nov-15 13:23N 47°44' W 005°28'512.9
2017-Nov-15 13:00N 47°40' W 005°26'613.0
2017-Nov-15 12:30N 47°34' W 005°22'713.1
2017-Nov-15 12:00N 47°28' W 005°19'613.2
2017-Nov-15 11:30N 47°21' W 005°15'713.3
2017-Nov-15 11:00N 47°15' W 005°12'713.1
2017-Nov-15 10:30N 47°09' W 005°09'713.1
2017-Nov-15 09:57N 47°02' W 005°06'613.3
2017-Nov-15 09:30N 46°56' W 005°04'713.3
2017-Nov-15 08:58N 46°49' W 005°01'713.1
2017-Nov-15 08:28N 46°44' W 004°57'613.1
2017-Nov-15 07:59N 46°38' W 004°54'17112.9
2017-Nov-14 18:45N 43°57' W 003°29'412.6
2017-Nov-14 18:29N 43°54' W 003°27'612.1
2017-Nov-14 18:00N 43°49' W 003°26'5 9.3
2017-Nov-14 17:31N 43°44' W 003°24'2 3.1
2017-Nov-14 17:01N 43°43' W 003°23'0 0.9
2017-Nov-14 16:30N 43°43' W 003°22'0 0.9
2017-Nov-14 16:00N 43°43' W 003°22'0 0.8
2017-Nov-14 15:30N 43°43' W 003°21'0 0.8
2017-Nov-14 15:00N 43°43' W 003°21'0 0.8
2017-Nov-14 14:30N 43°43' W 003°20'0 0.9
2017-Nov-14 14:00N 43°43' W 003°19'0 0.8
2017-Nov-14 13:31N 43°43' W 003°19'0 0.8
2017-Nov-14 13:01N 43°43' W 003°18'0 0.9
2017-Nov-14 12:31N 43°43' W 003°18'0 0.9
2017-Nov-14 12:01N 43°43' W 003°17'0 0.8
2017-Nov-14 11:30N 43°43' W 003°17'0 0.7
2017-Nov-14 11:00N 43°43' W 003°16'0 0.7
2017-Nov-14 10:31N 43°43' W 003°16'0 0.6
2017-Nov-14 10:00N 43°43' W 003°15'0 0.4
2017-Nov-14 09:30N 43°43' W 003°15'1 2.5
2017-Nov-14 09:01N 43°42' W 003°15'4 7.3
2017-Nov-14 08:30N 43°38' W 003°13'510.8
2017-Nov-14 08:01N 43°33' W 003°11'611.9
2017-Nov-14 07:31N 43°28' W 003°08'510.4
2017-Nov-14 07:00N 43°23' W 003°05'1 2.5
2017-Nov-14 06:30N 43°22' W 003°06'0 0.0
2017-Nov-14 05:59N 43°22' W 003°06'0 0.0
2017-Nov-14 05:29N 43°22' W 003°06'0 0.0
2017-Nov-14 04:59N 43°22' W 003°06'0 0.0
2017-Nov-14 04:29N 43°22' W 003°06'0 0.0
2017-Nov-14 03:59N 43°22' W 003°06'0 0.0
2017-Nov-14 03:29N 43°22' W 003°06'0 0.0
2017-Nov-14 02:59N 43°22' W 003°06'0 0.0
2017-Nov-14 02:29N 43°22' W 003°06'0 0.0
2017-Nov-14 01:59N 43°22' W 003°06'0 0.0
2017-Nov-14 01:29N 43°22' W 003°06'0 0.0
2017-Nov-14 00:59N 43°22' W 003°06'0 0.0
2017-Nov-14 00:29N 43°22' W 003°06'0 0.0
2017-Nov-13 23:59N 43°22' W 003°06'0 0.0
2017-Nov-13 23:29N 43°22' W 003°06'0 0.0
2017-Nov-13 22:59N 43°22' W 003°06'0 0.0
2017-Nov-13 22:29N 43°22' W 003°06'0 0.0
2017-Nov-13 21:59N 43°22' W 003°06'0 0.0
2017-Nov-13 02:00N 43°22' W 003°06'0 0.0
2017-Nov-13 01:30N 43°22' W 003°06'0 0.0
2017-Nov-13 01:00N 43°22' W 003°06'0 0.0
2017-Nov-13 00:30N 43°22' W 003°06'0 0.0
2017-Nov-13 00:00N 43°22' W 003°06'0 0.0
2017-Nov-12 23:30N 43°22' W 003°06'0 0.0
2017-Nov-12 23:00N 43°22' W 003°06'0 0.0
2017-Nov-12 22:27N 43°22' W 003°06'0 0.0
2017-Nov-12 22:00N 43°22' W 003°06'0 0.0
2017-Nov-12 21:30N 43°22' W 003°06'0 0.0
2017-Nov-12 21:00N 43°22' W 003°06'0 0.0
2017-Nov-12 20:30N 43°22' W 003°06'0 0.0
2017-Nov-12 20:00N 43°22' W 003°06'0 0.0
2017-Nov-12 19:30N 43°22' W 003°06'0 0.0
2017-Nov-12 19:00N 43°22' W 003°06'0 0.0
2017-Nov-12 18:30N 43°22' W 003°06'0 0.0
2017-Nov-12 18:00N 43°22' W 003°06'0 0.0
2017-Nov-12 17:30N 43°22' W 003°06'0 0.0
2017-Nov-12 17:00N 43°22' W 003°06'0 0.0
2017-Nov-12 16:27N 43°22' W 003°06'0 0.0
2017-Nov-12 16:00N 43°22' W 003°06'0 0.0
2017-Nov-12 15:30N 43°22' W 003°06'0 0.0
2017-Nov-12 15:00N 43°22' W 003°06'0 0.0
2017-Nov-12 14:30N 43°22' W 003°06'0 0.0
2017-Nov-12 14:00N 43°22' W 003°06'0 0.0
2017-Nov-12 13:30N 43°22' W 003°06'0 0.0
2017-Nov-12 13:00N 43°22' W 003°06'0 0.0
2017-Nov-12 12:27N 43°22' W 003°06'0 0.0
2017-Nov-12 12:00N 43°22' W 003°06'0 0.0
2017-Nov-12 11:30N 43°22' W 003°06'0 0.0
2017-Nov-12 11:00N 43°22' W 003°06'0 0.0
2017-Nov-12 10:30N 43°22' W 003°06'0 0.0
2017-Nov-12 10:00N 43°22' W 003°06'0 0.0
2017-Nov-12 09:27N 43°22' W 003°06'0 0.0
2017-Nov-12 09:00N 43°22' W 003°06'0 0.0
2017-Nov-12 08:30N 43°22' W 003°06'0 0.0
2017-Nov-12 08:00N 43°22' W 003°06'0 0.0
2017-Nov-12 07:30N 43°22' W 003°06'0 0.0
2017-Nov-12 06:57N 43°22' W 003°06'0 0.0
2017-Nov-12 06:30N 43°22' W 003°06'0 0.0
2017-Nov-12 06:00N 43°22' W 003°06'0 0.0
2017-Nov-12 05:27N 43°22' W 003°06'0 0.0
2017-Nov-12 05:00N 43°22' W 003°06'0 0.0
2017-Nov-12 04:30N 43°22' W 003°06'0 0.0
2017-Nov-12 03:57N 43°22' W 003°06'0 0.0
2017-Nov-12 03:30N 43°22' W 003°06'0 0.0
2017-Nov-12 03:00N 43°22' W 003°06'0 0.0
2017-Nov-12 02:30N 43°22' W 003°06'0 0.0
2017-Nov-12 02:00N 43°22' W 003°06'0 0.0
2017-Nov-12 01:30N 43°22' W 003°06'0 0.0
2017-Nov-12 01:00N 43°22' W 003°06'0 0.0
2017-Nov-12 00:30N 43°22' W 003°06'0 0.0
2017-Nov-11 23:24N 43°22' W 003°06'0 0.0
2017-Nov-11 23:00N 43°22' W 003°06'0 0.0
2017-Nov-11 22:30N 43°22' W 003°06'0 0.0
2017-Nov-11 22:00N 43°22' W 003°06'0 0.0
2017-Nov-11 21:30N 43°22' W 003°06'1 2.2
2017-Nov-11 21:00N 43°23' W 003°05'3 6.8
2017-Nov-11 20:30N 43°26' W 003°08'4 8.6
2017-Nov-11 20:00N 43°29' W 003°11'3 6.9
2017-Nov-11 19:30N 43°31' W 003°14'612.3
2017-Nov-11 19:00N 43°36' W 003°20'713.5
2017-Nov-11 18:30N 43°40' W 003°28'713.9
2017-Nov-11 18:00N 43°42' W 003°37'713.7
2017-Nov-11 17:30N 43°44' W 003°46'713.8
2017-Nov-11 17:00N 43°45' W 003°55'713.9
2017-Nov-11 16:30N 43°47' W 004°05'713.9
2017-Nov-11 16:01N 43°49' W 004°14'4113.6
2017-Nov-11 13:01N 43°54' W 005°10'413.9
2017-Nov-11 12:44N 43°54' W 005°15'1613.8
2017-Nov-11 11:36N 43°55' W 005°37'7513.7
2017-Nov-11 06:10N 44°00' W 007°21'213.8
2017-Nov-11 06:00N 44°00' W 007°24'713.7
2017-Nov-11 05:30N 43°60' W 007°33'713.6
2017-Nov-11 05:00N 43°60' W 007°43'713.2
2017-Nov-11 04:30N 43°59' W 007°52'1412.8
2017-Nov-11 03:23N 43°59' W 008°12'  
2017-Nov-07 14:46N 29°31' W 014°25'412.0
2017-Nov-07 14:27N 29°27' W 014°27'3212.0
2017-Nov-07 11:48N 28°57' W 014°39'1011.8
2017-Nov-07 10:57N 28°49' W 014°45'612.2
2017-Nov-07 10:28N 28°44' W 014°49'612.1
2017-Nov-07 10:00N 28°40' W 014°53'612.0
2017-Nov-07 09:30N 28°35' W 014°57'612.2
2017-Nov-07 09:00N 28°31' W 015°02'612.2
2017-Nov-07 08:30N 28°26' W 015°06'612.0
2017-Nov-07 08:00N 28°22' W 015°11'511.2
2017-Nov-07 07:30N 28°18' W 015°15'3 3.7
2017-Nov-07 06:38N 28°15' W 015°18'1 1.7
2017-Nov-07 06:16N 28°15' W 015°18'1 2.5
2017-Nov-07 06:00N 28°14' W 015°18'1 2.7
2017-Nov-07 05:30N 28°12' W 015°18'2 3.0
2017-Nov-07 05:00N 28°11' W 015°18'1 2.1
2017-Nov-07 04:30N 28°10' W 015°17'0 0.7
2017-Nov-07 04:00N 28°10' W 015°18'2 4.2
2017-Nov-07 03:30N 28°09' W 015°20'2 4.5
2017-Nov-07 03:00N 28°08' W 015°22'1 2.1
2017-Nov-07 02:30N 28°07' W 015°22'1 3.0
2017-Nov-07 02:00N 28°06' W 015°20'3 5.5
2017-Nov-07 01:30N 28°04' W 015°18'5 9.7
2017-Nov-07 01:00N 27°60' W 015°15'612.3
2017-Nov-07 00:30N 27°53' W 015°15'612.6
2017-Nov-07 00:00N 27°47' W 015°16'  

Dump ship's entire track history